createdAt,value
2023-11-30T00:02:21.007Z,24.23
2023-11-30T00:04:47.393Z,20.88
2023-11-30T00:07:14.230Z,21.40
2023-11-30T00:09:40.615Z,22.33
2023-11-30T00:12:07.129Z,21.23
2023-11-30T00:14:33.585Z,20.15
2023-11-30T00:16:59.965Z,20.48
2023-11-30T00:19:26.369Z,22.30
2023-11-30T00:21:52.776Z,27.13
2023-11-30T00:24:19.195Z,23.80
2023-11-30T00:26:45.652Z,20.20
2023-11-30T00:29:12.164Z,22.17
2023-11-30T00:31:38.624Z,21.20
2023-11-30T00:34:05.068Z,22.73
2023-11-30T00:36:31.477Z,19.65
2023-11-30T00:38:57.891Z,21.00
2023-11-30T00:41:24.298Z,23.58
2023-11-30T00:43:51.002Z,21.50
2023-11-30T00:46:17.923Z,19.90
2023-11-30T00:48:44.755Z,23.35
2023-11-30T00:51:11.624Z,21.52
2023-11-30T00:53:38.584Z,22.63
2023-11-30T00:56:05.620Z,21.33
2023-11-30T00:58:32.020Z,21.63
2023-11-30T01:00:58.493Z,20.60
2023-11-30T01:03:25.150Z,23.45
2023-11-30T01:05:51.718Z,22.65
2023-11-30T01:08:18.166Z,22.65
2023-11-30T01:10:45.129Z,23.00
2023-11-30T01:13:11.623Z,21.17
2023-11-30T01:15:38.025Z,22.33
2023-11-30T01:18:07.369Z,17.58
2023-11-30T01:20:33.943Z,19.25
2023-11-30T01:23:00.369Z,19.45
2023-11-30T01:25:26.756Z,18.92
2023-11-30T01:27:53.218Z,21.45
2023-11-30T01:30:20.671Z,20.98
2023-11-30T01:32:47.142Z,19.48
2023-11-30T01:35:13.570Z,22.58
2023-11-30T01:37:40.031Z,19.30
2023-11-30T01:40:10.536Z,19.90
2023-11-30T01:42:37.463Z,22.33
2023-11-30T01:45:04.661Z,21.77
2023-11-30T01:47:32.193Z,22.38
2023-11-30T01:49:59.441Z,21.63
2023-11-30T01:52:26.078Z,18.92
2023-11-30T01:54:52.819Z,25.08
2023-11-30T01:57:19.605Z,22.63
2023-11-30T01:59:46.081Z,22.77
2023-11-30T02:02:12.580Z,18.42
2023-11-30T02:04:41.964Z,19.90
2023-11-30T02:07:08.492Z,22.15
2023-11-30T02:09:34.902Z,22.73
2023-11-30T02:12:01.314Z,23.38
2023-11-30T02:14:27.745Z,21.55
2023-11-30T02:16:54.113Z,29.05
2023-11-30T02:19:20.592Z,25.27
2023-11-30T02:21:53.288Z,21.98
2023-11-30T02:24:19.886Z,25.92
2023-11-30T02:26:46.499Z,25.15
2023-11-30T02:29:16.537Z,26.33
2023-11-30T02:31:43.518Z,25.77
2023-11-30T02:34:10.130Z,25.75
2023-11-30T02:36:36.517Z,27.90
2023-11-30T02:39:03.004Z,29.48
2023-11-30T02:41:29.864Z,26.40
2023-11-30T02:43:57.926Z,27.60
2023-11-30T02:46:24.939Z,29.45
2023-11-30T02:48:51.555Z,26.52
2023-11-30T02:51:18.030Z,24.30
2023-11-30T02:53:44.487Z,23.67
2023-11-30T02:56:11.066Z,22.15
2023-11-30T02:58:37.464Z,26.40
2023-11-30T03:01:04.624Z,26.42
2023-11-30T03:03:31.132Z,23.08
2023-11-30T03:05:57.741Z,26.45
2023-11-30T03:08:24.176Z,25.42
2023-11-30T03:10:51.328Z,25.80
2023-11-30T03:13:17.702Z,27.98
2023-11-30T03:15:45.380Z,25.48
2023-11-30T03:18:11.890Z,25.33
2023-11-30T03:20:38.309Z,24.20
2023-11-30T03:23:04.831Z,26.08
2023-11-30T03:25:31.268Z,23.58
2023-11-30T03:27:57.703Z,28.17
2023-11-30T03:30:24.173Z,23.98
2023-11-30T03:32:50.697Z,23.77
2023-11-30T03:35:17.163Z,23.38
2023-11-30T03:37:44.942Z,24.42
2023-11-30T03:40:12.107Z,26.95
2023-11-30T03:42:38.635Z,25.02
2023-11-30T03:45:05.507Z,24.90
2023-11-30T03:47:31.983Z,24.38
2023-11-30T03:49:58.379Z,23.52
2023-11-30T03:52:24.843Z,23.00
2023-11-30T03:54:51.226Z,25.45
2023-11-30T03:57:17.760Z,29.13
2023-11-30T03:59:44.421Z,31.05
2023-11-30T04:02:10.881Z,26.35
2023-11-30T04:04:40.254Z,27.83
2023-11-30T04:07:06.736Z,27.10
2023-11-30T04:09:33.189Z,26.48
2023-11-30T04:12:00.944Z,26.55
2023-11-30T04:14:27.373Z,27.45
2023-11-30T04:16:53.808Z,25.23
2023-11-30T04:19:20.303Z,27.90
2023-11-30T04:21:46.694Z,26.42
2023-11-30T04:24:15.816Z,26.33
2023-11-30T04:26:42.265Z,30.95
2023-11-30T04:29:08.679Z,27.77
2023-11-30T04:31:35.155Z,31.55
2023-11-30T04:34:01.675Z,28.70
2023-11-30T04:36:28.128Z,30.02
2023-11-30T04:38:54.602Z,33.20
2023-11-30T04:41:21.054Z,30.38
2023-11-30T04:43:47.532Z,31.77
2023-11-30T04:46:14.106Z,32.45
2023-11-30T04:48:42.428Z,32.53
2023-11-30T04:51:09.381Z,34.13
2023-11-30T04:53:35.833Z,32.70
2023-11-30T04:56:02.248Z,29.95
2023-11-30T04:58:28.634Z,30.63
2023-11-30T05:00:55.278Z,29.85
2023-11-30T05:03:21.992Z,30.73
2023-11-30T05:05:48.533Z,27.13
2023-11-30T05:08:14.972Z,31.48
2023-11-30T05:10:41.547Z,31.67
2023-11-30T05:13:07.951Z,32.85
2023-11-30T05:15:39.067Z,27.75
2023-11-30T05:18:05.767Z,32.53
2023-11-30T05:20:32.276Z,28.00
2023-11-30T05:22:58.683Z,29.33
2023-11-30T05:25:25.079Z,35.45
2023-11-30T05:27:51.568Z,35.30
2023-11-30T05:30:18.269Z,36.55
2023-11-30T05:32:44.697Z,35.20
2023-11-30T05:35:11.092Z,36.20
2023-11-30T05:37:37.537Z,36.72
2023-11-30T05:40:05.342Z,37.65
2023-11-30T05:42:32.076Z,36.10
2023-11-30T05:44:58.509Z,37.80
2023-11-30T05:47:25.105Z,38.20
2023-11-30T05:49:51.963Z,35.30
2023-11-30T05:52:18.365Z,37.75
2023-11-30T05:54:44.781Z,38.95
2023-11-30T05:57:11.278Z,36.78
2023-11-30T05:59:38.354Z,33.70
2023-11-30T06:02:06.080Z,36.60
2023-11-30T06:04:33.176Z,33.33
2023-11-30T06:06:59.650Z,32.95
2023-11-30T06:09:26.088Z,33.47
2023-11-30T06:11:53.314Z,32.22
2023-11-30T06:14:20.346Z,34.97
2023-11-30T06:16:46.834Z,34.10
2023-11-30T06:19:13.208Z,34.10
2023-11-30T06:21:39.695Z,36.28
2023-11-30T06:24:06.289Z,38.42
2023-11-30T06:26:32.736Z,33.83
2023-11-30T06:28:59.404Z,36.53
2023-11-30T06:31:25.810Z,34.60
2023-11-30T06:33:52.308Z,39.45
2023-11-30T06:36:18.784Z,38.95
2023-11-30T06:38:45.310Z,41.35
2023-11-30T06:41:14.905Z,37.40
2023-11-30T06:43:41.628Z,35.67
2023-11-30T06:46:08.244Z,39.17
2023-11-30T06:48:34.831Z,42.05
2023-11-30T06:51:01.379Z,43.55
2023-11-30T06:53:27.840Z,43.13
2023-11-30T06:55:54.266Z,40.72
2023-11-30T06:58:20.694Z,43.08
2023-11-30T07:00:47.337Z,40.65
2023-11-30T07:03:14.340Z,50.22
2023-11-30T07:05:40.876Z,43.55
2023-11-30T07:08:07.768Z,46.60
2023-11-30T07:10:34.168Z,45.22
2023-11-30T07:13:00.543Z,41.58
2023-11-30T07:15:26.968Z,45.05
2023-11-30T07:17:53.570Z,39.17
2023-11-30T07:20:20.143Z,41.30
2023-11-30T07:22:46.550Z,41.38
2023-11-30T07:25:12.978Z,37.35
2023-11-30T07:27:39.534Z,38.58
2023-11-30T07:30:10.308Z,35.95
2023-11-30T07:32:37.480Z,39.30
2023-11-30T07:35:07.110Z,43.30
2023-11-30T07:37:33.535Z,41.15
2023-11-30T07:39:59.947Z,37.83
2023-11-30T07:42:32.791Z,39.50
2023-11-30T07:45:04.657Z,39.15
2023-11-30T07:47:31.838Z,40.45
2023-11-30T07:49:58.410Z,36.45
2023-11-30T07:52:24.828Z,32.33
2023-11-30T07:54:51.222Z,38.38
2023-11-30T07:57:19.030Z,40.72
2023-11-30T07:59:45.639Z,41.65
2023-11-30T08:02:12.172Z,39.47
2023-11-30T08:04:38.799Z,41.53
2023-11-30T08:07:05.486Z,38.65
2023-11-30T08:09:32.350Z,42.60
2023-11-30T08:11:58.830Z,41.88
2023-11-30T08:14:25.234Z,40.28
2023-11-30T08:16:51.750Z,37.42
2023-11-30T08:19:18.181Z,41.95
2023-11-30T08:21:45.566Z,46.80
2023-11-30T08:24:12.731Z,47.35
2023-11-30T08:26:39.166Z,44.95
2023-11-30T08:29:05.613Z,47.03
2023-11-30T08:31:33.548Z,41.88
2023-11-30T08:34:00.021Z,38.50
2023-11-30T08:36:26.682Z,46.60
2023-11-30T08:38:53.177Z,41.05
2023-11-30T08:41:21.380Z,43.00
2023-11-30T08:43:48.919Z,40.92
2023-11-30T08:46:15.400Z,39.47
2023-11-30T08:48:41.872Z,41.80
2023-11-30T08:51:09.436Z,37.95
2023-11-30T08:53:35.858Z,41.50
2023-11-30T08:56:02.274Z,39.42
2023-11-30T08:58:28.664Z,36.97
2023-11-30T09:00:55.164Z,38.00
2023-11-30T09:03:21.685Z,35.40
2023-11-30T09:05:48.152Z,41.30
2023-11-30T09:08:14.551Z,37.85
2023-11-30T09:10:40.971Z,41.50
2023-11-30T09:13:08.975Z,39.60
2023-11-30T09:15:35.474Z,40.67
2023-11-30T09:18:04.435Z,39.15
2023-11-30T09:20:33.852Z,35.00
2023-11-30T09:23:00.293Z,36.13
2023-11-30T09:25:26.824Z,36.28
2023-11-30T09:27:53.243Z,34.38
2023-11-30T09:30:19.828Z,36.63
2023-11-30T09:32:46.294Z,37.20
2023-11-30T09:35:12.775Z,37.00
2023-11-30T09:37:39.281Z,35.05
2023-11-30T09:40:09.953Z,39.03
2023-11-30T09:42:36.513Z,39.88
2023-11-30T09:45:08.461Z,41.17
2023-11-30T09:47:35.462Z,37.63
2023-11-30T09:50:02.139Z,40.85
2023-11-30T09:52:29.530Z,33.65
2023-11-30T09:54:57.555Z,33.78
2023-11-30T09:57:26.831Z,33.58
2023-11-30T09:59:53.698Z,36.38
2023-11-30T10:02:20.439Z,40.20
2023-11-30T10:04:47.132Z,35.15
2023-11-30T10:07:13.558Z,33.22
2023-11-30T10:09:40.699Z,33.83
2023-11-30T10:12:07.252Z,34.88
2023-11-30T10:14:33.992Z,34.90
2023-11-30T10:17:01.297Z,36.63
2023-11-30T10:19:28.110Z,35.47
2023-11-30T10:21:58.325Z,33.45
2023-11-30T10:24:25.364Z,37.90
2023-11-30T10:26:52.949Z,34.90
2023-11-30T10:29:24.172Z,37.05
2023-11-30T10:31:54.496Z,39.92
2023-11-30T10:34:27.413Z,37.42
2023-11-30T10:36:54.832Z,34.42
2023-11-30T10:39:24.190Z,32.33
2023-11-30T10:41:52.283Z,35.22
2023-11-30T10:44:30.718Z,31.98
2023-11-30T10:46:58.622Z,33.03
2023-11-30T10:49:26.425Z,33.38
2023-11-30T10:51:56.626Z,33.40
2023-11-30T10:54:43.253Z,33.22
2023-11-30T10:57:09.791Z,35.42
2023-11-30T10:59:36.206Z,35.17
2023-11-30T11:02:06.686Z,35.38
2023-11-30T11:04:33.589Z,36.78
2023-11-30T11:07:18.511Z,35.08
2023-11-30T11:09:51.839Z,36.15
2023-11-30T11:12:23.712Z,38.90
2023-11-30T11:14:50.757Z,39.17
2023-11-30T11:17:20.866Z,39.85
2023-11-30T11:19:47.416Z,37.00
2023-11-30T11:22:25.587Z,34.63
2023-11-30T11:24:59.371Z,38.05
2023-11-30T11:27:33.969Z,37.42
2023-11-30T11:30:08.386Z,32.22
2023-11-30T11:32:36.035Z,32.88
2023-11-30T11:35:09.185Z,35.35
2023-11-30T11:37:35.674Z,32.40
2023-11-30T11:40:03.057Z,32.42
2023-11-30T11:42:29.468Z,33.72
2023-11-30T11:44:56.117Z,38.45
2023-11-30T11:47:22.794Z,36.10
2023-11-30T11:49:49.450Z,34.95
2023-11-30T11:52:22.823Z,39.95
2023-11-30T11:55:04.923Z,37.72
2023-11-30T11:57:45.093Z,26.30
2023-11-30T12:00:15.426Z,35.03
2023-11-30T12:02:44.389Z,38.25
2023-11-30T12:05:12.806Z,38.22
2023-11-30T12:07:57.067Z,36.78
2023-11-30T12:10:31.810Z,33.70
2023-11-30T12:12:59.948Z,33.25
2023-11-30T12:15:26.942Z,32.17
2023-11-30T12:17:54.131Z,33.83
2023-11-30T12:20:21.546Z,36.30
2023-11-30T12:22:48.256Z,36.08
2023-11-30T12:25:15.423Z,33.17
2023-11-30T12:27:42.089Z,32.00
2023-11-30T12:30:09.835Z,30.83
2023-11-30T12:32:39.290Z,34.05
2023-11-30T12:35:07.532Z,30.50
2023-11-30T12:37:36.413Z,31.70
2023-11-30T12:40:04.625Z,32.30
2023-11-30T12:42:33.650Z,32.33
2023-11-30T12:45:00.368Z,30.95
2023-11-30T12:47:27.001Z,31.20
2023-11-30T12:49:53.615Z,30.45
2023-11-30T12:52:21.512Z,29.65
2023-11-30T12:54:51.803Z,29.70
2023-11-30T12:57:18.786Z,33.60
2023-11-30T12:59:45.231Z,37.00
2023-11-30T13:02:12.018Z,36.40
2023-11-30T13:04:40.082Z,33.28
2023-11-30T13:07:06.628Z,36.05
2023-11-30T13:09:35.622Z,32.95
2023-11-30T13:12:02.591Z,32.90
2023-11-30T13:14:29.350Z,35.15
2023-11-30T13:16:56.225Z,30.35
2023-11-30T13:19:24.824Z,33.10
2023-11-30T13:21:52.092Z,32.42
2023-11-30T13:24:20.073Z,28.85
2023-11-30T13:26:49.745Z,33.38
2023-11-30T13:29:16.433Z,35.17
2023-11-30T13:31:43.108Z,34.33
2023-11-30T13:34:09.587Z,35.85
2023-11-30T13:36:36.132Z,32.45
2023-11-30T13:39:02.633Z,33.75
2023-11-30T13:41:29.033Z,32.33
2023-11-30T13:43:55.851Z,34.47
2023-11-30T13:46:22.447Z,36.35
2023-11-30T13:48:49.027Z,32.90
2023-11-30T13:51:15.778Z,33.05
2023-11-30T13:53:42.403Z,32.00
2023-11-30T13:56:09.636Z,35.25
2023-11-30T13:58:36.088Z,31.38
2023-11-30T14:01:02.597Z,37.05
2023-11-30T14:03:29.097Z,37.22
2023-11-30T14:05:55.536Z,37.65
2023-11-30T14:08:22.291Z,36.03
2023-11-30T14:10:48.720Z,34.10
2023-11-30T14:13:15.361Z,33.88
2023-11-30T14:15:42.007Z,33.97
2023-11-30T14:18:08.808Z,35.35
2023-11-30T14:20:37.518Z,36.58
2023-11-30T14:23:04.904Z,36.35
2023-11-30T14:25:31.380Z,37.17
2023-11-30T14:28:00.963Z,34.85
2023-11-30T14:30:31.875Z,33.97
2023-11-30T14:32:58.409Z,32.30
2023-11-30T14:35:24.853Z,34.67
2023-11-30T14:37:51.363Z,33.78
2023-11-30T14:40:17.886Z,35.25
2023-11-30T14:42:46.003Z,35.25
2023-11-30T14:45:13.879Z,36.30
2023-11-30T14:47:41.200Z,32.13
2023-11-30T14:50:09.790Z,35.05
2023-11-30T14:52:36.278Z,33.75
2023-11-30T14:55:02.694Z,30.25
2023-11-30T14:57:29.126Z,32.20
2023-11-30T14:59:55.620Z,34.13
2023-11-30T15:02:22.196Z,33.40
2023-11-30T15:04:48.601Z,36.88
2023-11-30T15:07:15.005Z,34.85
2023-11-30T15:09:43.021Z,35.78
2023-11-30T15:12:10.220Z,35.97
2023-11-30T15:14:36.680Z,33.00
2023-11-30T15:17:03.797Z,35.55
2023-11-30T15:19:30.309Z,35.45
2023-11-30T15:21:56.746Z,35.80
2023-11-30T15:24:23.208Z,38.03
2023-11-30T15:26:49.626Z,39.65
2023-11-30T15:29:16.131Z,35.53
2023-11-30T15:31:43.316Z,37.10
2023-11-30T15:34:10.325Z,39.45
2023-11-30T15:36:37.006Z,36.47
2023-11-30T15:39:12.868Z,37.70
2023-11-30T15:41:46.979Z,39.63
2023-11-30T15:44:13.469Z,44.30
2023-11-30T15:46:44.695Z,38.85
2023-11-30T15:49:13.051Z,38.83
2023-11-30T15:51:40.964Z,36.60
2023-11-30T15:54:07.492Z,39.30
2023-11-30T15:56:33.942Z,39.13
2023-11-30T15:59:00.438Z,43.50
2023-11-30T16:01:33.240Z,42.15
2023-11-30T16:04:00.418Z,44.50
2023-11-30T16:06:27.323Z,40.60
2023-11-30T16:08:54.521Z,42.50
2023-11-30T16:11:20.958Z,41.90
2023-11-30T16:13:47.463Z,36.85
2023-11-30T16:16:13.973Z,41.22
2023-11-30T16:18:41.250Z,42.50
2023-11-30T16:21:17.786Z,40.90
2023-11-30T16:23:45.560Z,41.00
2023-11-30T16:26:19.870Z,41.08
2023-11-30T16:28:46.640Z,41.63
2023-11-30T16:31:13.650Z,38.40
2023-11-30T16:33:41.791Z,38.42
2023-11-30T16:36:09.532Z,41.92
2023-11-30T16:38:36.493Z,39.70
2023-11-30T16:41:02.924Z,40.35
2023-11-30T16:43:29.317Z,38.72
2023-11-30T16:45:55.872Z,38.92
2023-11-30T16:48:22.329Z,39.35
2023-11-30T16:50:48.752Z,39.85
2023-11-30T16:53:15.178Z,41.25
2023-11-30T16:55:41.602Z,53.63
2023-11-30T16:58:07.976Z,48.13
2023-11-30T17:00:34.505Z,44.75
2023-11-30T17:03:01.071Z,44.20
2023-11-30T17:05:27.613Z,41.80
2023-11-30T17:07:54.084Z,38.55
2023-11-30T17:10:20.540Z,39.60
2023-11-30T17:12:46.995Z,40.75
2023-11-30T17:15:13.864Z,38.28
2023-11-30T17:17:45.984Z,36.33
2023-11-30T17:20:13.295Z,36.40
2023-11-30T17:22:40.012Z,40.00
2023-11-30T17:25:06.937Z,38.83
2023-11-30T17:27:33.404Z,35.80
2023-11-30T17:30:00.447Z,39.30
2023-11-30T17:32:26.910Z,39.72
2023-11-30T17:34:54.740Z,37.22
2023-11-30T17:37:21.231Z,39.55
2023-11-30T17:39:47.787Z,39.15
2023-11-30T17:42:14.204Z,40.38
2023-11-30T17:44:40.678Z,37.60
2023-11-30T17:47:07.106Z,40.08
2023-11-30T17:49:35.048Z,42.63
2023-11-30T17:52:01.446Z,44.85
2023-11-30T17:54:27.834Z,40.95
2023-11-30T17:56:54.317Z,42.97
2023-11-30T17:59:20.755Z,43.67
2023-11-30T18:01:47.170Z,45.20
2023-11-30T18:04:13.653Z,46.28
2023-11-30T18:06:40.219Z,47.97
2023-11-30T18:09:06.651Z,48.13
2023-11-30T18:11:33.056Z,50.88
2023-11-30T18:13:59.502Z,49.58
2023-11-30T18:16:25.916Z,47.00
2023-11-30T18:18:52.380Z,45.53
2023-11-30T18:21:18.802Z,45.65
2023-11-30T18:23:45.274Z,40.80
2023-11-30T18:26:11.672Z,42.53
2023-11-30T18:28:38.048Z,45.25
2023-11-30T18:31:12.109Z,43.58
2023-11-30T18:33:46.723Z,45.95
2023-11-30T18:36:13.183Z,42.60
2023-11-30T18:38:44.173Z,41.55
2023-11-30T18:41:17.403Z,44.33
2023-11-30T18:43:43.827Z,41.47
2023-11-30T18:46:10.255Z,43.53
2023-11-30T18:48:37.876Z,46.35
2023-11-30T18:51:06.512Z,48.90
2023-11-30T18:53:33.577Z,48.50
2023-11-30T18:56:01.439Z,47.15
2023-11-30T18:58:27.876Z,48.00
2023-11-30T19:00:55.792Z,47.78
2023-11-30T19:03:22.884Z,48.15
2023-11-30T19:05:50.237Z,49.78
2023-11-30T19:08:16.626Z,47.20
2023-11-30T19:10:43.066Z,46.80
2023-11-30T19:13:09.460Z,47.30
2023-11-30T19:15:38.612Z,48.55
2023-11-30T19:18:06.516Z,45.83
2023-11-30T19:20:33.042Z,46.55
2023-11-30T19:22:59.434Z,46.58
2023-11-30T19:25:25.837Z,47.85
2023-11-30T19:27:52.865Z,46.83
2023-11-30T19:30:19.286Z,47.88
2023-11-30T19:32:45.746Z,51.42
2023-11-30T19:35:13.691Z,54.75
2023-11-30T19:37:40.123Z,48.95
2023-11-30T19:40:07.646Z,49.67
2023-11-30T19:42:34.269Z,50.17
2023-11-30T19:45:00.753Z,52.50
2023-11-30T19:47:27.375Z,52.13
2023-11-30T19:49:53.818Z,55.55
2023-11-30T19:52:20.212Z,52.40
2023-11-30T19:54:46.634Z,55.20
2023-11-30T19:57:13.096Z,51.35
2023-11-30T19:59:41.180Z,52.20
2023-11-30T20:02:07.949Z,52.53
2023-11-30T20:04:34.477Z,49.30
2023-11-30T20:07:00.937Z,50.22
2023-11-30T20:09:27.405Z,49.05
2023-11-30T20:11:53.791Z,46.30
2023-11-30T20:14:20.167Z,48.83
2023-11-30T20:16:46.694Z,52.72
2023-11-30T20:19:13.126Z,47.10
2023-11-30T20:21:39.548Z,50.78
2023-11-30T20:24:06.224Z,47.22
2023-11-30T20:26:32.618Z,45.65
2023-11-30T20:28:59.008Z,49.33
2023-11-30T20:31:25.469Z,51.15
2023-11-30T20:33:52.736Z,46.53
2023-11-30T20:36:19.253Z,44.20
2023-11-30T20:38:45.671Z,48.78
2023-11-30T20:41:12.068Z,48.15
2023-11-30T20:43:38.530Z,46.67
2023-11-30T20:46:05.364Z,53.28
2023-11-30T20:48:31.928Z,50.63
2023-11-30T20:50:58.307Z,52.08
2023-11-30T20:53:24.756Z,48.97
2023-11-30T20:55:51.155Z,54.22
2023-11-30T20:58:17.579Z,51.20
2023-11-30T21:00:44.254Z,48.10
2023-11-30T21:03:10.890Z,54.35
2023-11-30T21:05:37.404Z,52.50
2023-11-30T21:08:03.919Z,52.40
2023-11-30T21:10:30.316Z,52.75
2023-11-30T21:12:56.768Z,48.53
2023-11-30T21:15:23.229Z,53.65
2023-11-30T21:17:49.721Z,54.90
2023-11-30T21:20:16.128Z,56.15
2023-11-30T21:22:42.684Z,56.55
2023-11-30T21:25:11.091Z,56.63
2023-11-30T21:27:37.521Z,52.55
2023-11-30T21:30:04.504Z,49.50
2023-11-30T21:32:30.962Z,50.13
2023-11-30T21:34:57.362Z,53.75
2023-11-30T21:37:23.783Z,52.20
2023-11-30T21:39:50.189Z,49.47
2023-11-30T21:42:16.620Z,54.83
2023-11-30T21:44:43.557Z,49.33
2023-11-30T21:47:17.502Z,48.72
2023-11-30T21:49:49.183Z,47.33
2023-11-30T21:52:15.861Z,46.42
2023-11-30T21:54:43.000Z,46.30
2023-11-30T21:57:09.416Z,54.08
2023-11-30T21:59:37.804Z,44.72
2023-11-30T22:02:05.701Z,48.53
2023-11-30T22:04:32.495Z,47.67
2023-11-30T22:06:59.341Z,46.13
2023-11-30T22:09:25.760Z,48.58
2023-11-30T22:11:52.171Z,50.15
2023-11-30T22:14:18.576Z,50.05
2023-11-30T22:16:45.848Z,53.28
2023-11-30T22:19:12.386Z,52.65
2023-11-30T22:21:38.887Z,51.67
2023-11-30T22:24:05.545Z,51.35
2023-11-30T22:26:31.938Z,49.13
2023-11-30T22:28:58.826Z,52.60
2023-11-30T22:31:25.735Z,49.90
2023-11-30T22:33:52.260Z,51.40
2023-11-30T22:36:18.758Z,59.33
2023-11-30T22:38:46.387Z,53.05
2023-11-30T22:41:13.585Z,54.85
2023-11-30T22:43:40.006Z,54.47
2023-11-30T22:46:06.564Z,60.35
2023-11-30T22:48:35.906Z,51.70
2023-11-30T22:51:02.550Z,54.42
2023-11-30T22:53:28.952Z,54.67
2023-11-30T22:55:55.458Z,58.70
2023-11-30T22:58:22.055Z,56.38
2023-11-30T23:00:48.757Z,61.20
2023-11-30T23:03:15.549Z,57.97
2023-11-30T23:05:42.382Z,61.85
2023-11-30T23:08:08.797Z,58.28
2023-11-30T23:10:35.349Z,59.00
2023-11-30T23:13:01.937Z,57.90
2023-11-30T23:15:28.633Z,63.10
2023-11-30T23:17:55.047Z,65.38
2023-11-30T23:20:21.501Z,63.63
2023-11-30T23:22:47.894Z,63.78
2023-11-30T23:25:15.352Z,63.58
2023-11-30T23:27:41.804Z,64.25
2023-11-30T23:30:08.518Z,62.53
2023-11-30T23:32:34.964Z,65.57
2023-11-30T23:35:01.421Z,63.03
2023-11-30T23:37:27.824Z,65.40
2023-11-30T23:39:54.323Z,64.85
2023-11-30T23:42:20.804Z,63.72
2023-11-30T23:44:48.111Z,62.83
2023-11-30T23:47:14.673Z,63.00
2023-11-30T23:49:41.111Z,61.25
2023-11-30T23:52:07.543Z,63.08
2023-11-30T23:54:34.188Z,61.97
2023-11-30T23:57:00.679Z,61.80
2023-11-30T23:59:27.127Z,63.35
